sensor_id;sensor_type;location;lat;lon;timestamp;pressure;altitude;pressure_sealevel;temperature;humidity
36630;BME280;36256;42.154;23.002;2023-08-12T00:02:15;97685.34;;;20.63;79.29
36630;BME280;36256;42.154;23.002;2023-08-12T00:04:42;97685.09;;;20.61;78.08
36630;BME280;36256;42.154;23.002;2023-08-12T00:07:09;97686.41;;;20.71;79.11
36630;BME280;36256;42.154;23.002;2023-08-12T00:09:36;97691.59;;;20.67;79.06
36630;BME280;36256;42.154;23.002;2023-08-12T00:12:03;97686.88;;;20.53;78.17
36630;BME280;36256;42.154;23.002;2023-08-12T00:14:30;97682.97;;;20.50;78.72
36630;BME280;36256;42.154;23.002;2023-08-12T00:16:56;97682.66;;;20.43;78.58
36630;BME280;36256;42.154;23.002;2023-08-12T00:19:23;97684.25;;;20.44;79.65
36630;BME280;36256;42.154;23.002;2023-08-12T00:21:50;97676.22;;;20.48;78.63
36630;BME280;36256;42.154;23.002;2023-08-12T00:24:18;97677.50;;;20.47;80.10
36630;BME280;36256;42.154;23.002;2023-08-12T00:26:45;97672.06;;;20.49;78.85
36630;BME280;36256;42.154;23.002;2023-08-12T00:29:12;97677.31;;;20.61;79.79
36630;BME280;36256;42.154;23.002;2023-08-12T00:31:38;97683.03;;;20.67;81.62
36630;BME280;36256;42.154;23.002;2023-08-12T00:34:05;97680.97;;;20.67;79.74
36630;BME280;36256;42.154;23.002;2023-08-12T00:36:32;97672.34;;;20.51;78.52
36630;BME280;36256;42.154;23.002;2023-08-12T00:38:58;97668.72;;;20.50;78.73
36630;BME280;36256;42.154;23.002;2023-08-12T00:41:25;97674.16;;;20.48;79.59
36630;BME280;36256;42.154;23.002;2023-08-12T00:43:52;97673.84;;;20.41;79.71
36630;BME280;36256;42.154;23.002;2023-08-12T00:46:19;97673.09;;;20.40;80.07
36630;BME280;36256;42.154;23.002;2023-08-12T00:48:46;97673.50;;;20.27;80.28
36630;BME280;36256;42.154;23.002;2023-08-12T00:51:15;97675.81;;;20.23;79.72
36630;BME280;36256;42.154;23.002;2023-08-12T00:53:43;97676.09;;;20.25;80.39
36630;BME280;36256;42.154;23.002;2023-08-12T00:56:11;97672.50;;;20.25;79.77
36630;BME280;36256;42.154;23.002;2023-08-12T00:58:39;97672.25;;;20.28;81.16
36630;BME280;36256;42.154;23.002;2023-08-12T01:01:06;97672.78;;;20.32;81.70
36630;BME280;36256;42.154;23.002;2023-08-12T01:03:34;97653.31;;;20.25;81.37
36630;BME280;36256;42.154;23.002;2023-08-12T01:06:01;97663.94;;;20.25;82.49
36630;BME280;36256;42.154;23.002;2023-08-12T01:08:31;97667.53;;;20.25;81.90
36630;BME280;36256;42.154;23.002;2023-08-12T01:14:13;97648.91;;;20.24;82.52
36630;BME280;36256;42.154;23.002;2023-08-12T01:16:45;97662.41;;;20.29;83.58
36630;BME280;36256;42.154;23.002;2023-08-12T01:19:40;97655.28;;;20.14;83.36
36630;BME280;36256;42.154;23.002;2023-08-12T01:22:11;97650.88;;;20.13;84.80
36630;BME280;36256;42.154;23.002;2023-08-12T01:24:43;97660.75;;;20.17;84.69
36630;BME280;36256;42.154;23.002;2023-08-12T01:27:12;97661.53;;;20.18;85.39
36630;BME280;36256;42.154;23.002;2023-08-12T01:29:42;97658.94;;;20.14;84.87
36630;BME280;36256;42.154;23.002;2023-08-12T01:37:36;97654.50;;;20.13;86.39
36630;BME280;36256;42.154;23.002;2023-08-12T01:40:05;97651.63;;;20.08;84.94
36630;BME280;36256;42.154;23.002;2023-08-12T01:42:33;97658.94;;;20.14;82.38
36630;BME280;36256;42.154;23.002;2023-08-12T01:45:00;97663.88;;;20.19;82.06
36630;BME280;36256;42.154;23.002;2023-08-12T01:47:28;97656.28;;;20.05;82.34
36630;BME280;36256;42.154;23.002;2023-08-12T01:49:55;97654.22;;;20.06;83.13
36630;BME280;36256;42.154;23.002;2023-08-12T01:52:22;97657.56;;;20.04;84.67
36630;BME280;36256;42.154;23.002;2023-08-12T01:54:49;97652.91;;;20.01;84.27
36630;BME280;36256;42.154;23.002;2023-08-12T01:57:15;97654.66;;;19.93;83.16
36630;BME280;36256;42.154;23.002;2023-08-12T01:59:42;97652.91;;;20.01;84.03
36630;BME280;36256;42.154;23.002;2023-08-12T02:02:12;97664.84;;;20.05;85.55
36630;BME280;36256;42.154;23.002;2023-08-12T02:04:40;97659.31;;;19.91;84.29
36630;BME280;36256;42.154;23.002;2023-08-12T02:07:09;97667.09;;;19.96;87.26
36630;BME280;36256;42.154;23.002;2023-08-12T02:09:36;97667.06;;;19.90;88.20
36630;BME280;36256;42.154;23.002;2023-08-12T02:12:02;97659.59;;;19.98;87.09
36630;BME280;36256;42.154;23.002;2023-08-12T02:14:29;97674.25;;;19.80;87.70
36630;BME280;36256;42.154;23.002;2023-08-12T02:16:56;97674.53;;;19.82;90.42
36630;BME280;36256;42.154;23.002;2023-08-12T02:19:23;97671.41;;;19.80;90.62
36630;BME280;36256;42.154;23.002;2023-08-12T02:21:49;97668.56;;;19.80;90.01
36630;BME280;36256;42.154;23.002;2023-08-12T02:24:16;97676.06;;;19.83;90.35
36630;BME280;36256;42.154;23.002;2023-08-12T02:26:43;97678.09;;;19.77;91.86
36630;BME280;36256;42.154;23.002;2023-08-12T02:29:09;97663.81;;;19.66;91.21
36630;BME280;36256;42.154;23.002;2023-08-12T02:31:36;97686.09;;;19.73;91.41
36630;BME280;36256;42.154;23.002;2023-08-12T02:34:03;97681.97;;;19.74;91.68
36630;BME280;36256;42.154;23.002;2023-08-12T02:36:30;97687.66;;;19.74;91.96
36630;BME280;36256;42.154;23.002;2023-08-12T02:38:57;97691.28;;;19.75;94.18
36630;BME280;36256;42.154;23.002;2023-08-12T02:41:23;97686.59;;;19.72;94.81
36630;BME280;36256;42.154;23.002;2023-08-12T02:43:50;97690.16;;;19.61;96.41
36630;BME280;36256;42.154;23.002;2023-08-12T02:46:17;97693.00;;;19.61;94.19
36630;BME280;36256;42.154;23.002;2023-08-12T02:48:45;97685.44;;;19.58;95.81
36630;BME280;36256;42.154;23.002;2023-08-12T02:51:14;97691.00;;;19.41;96.31
36630;BME280;36256;42.154;23.002;2023-08-12T02:53:40;97663.84;;;19.15;97.26
36630;BME280;36256;42.154;23.002;2023-08-12T02:56:07;97685.81;;;19.14;98.46
36630;BME280;36256;42.154;23.002;2023-08-12T02:58:34;97691.22;;;19.12;98.37
36630;BME280;36256;42.154;23.002;2023-08-12T03:01:01;97695.13;;;19.15;100.00
36630;BME280;36256;42.154;23.002;2023-08-12T03:03:27;97694.03;;;19.07;100.00
36630;BME280;36256;42.154;23.002;2023-08-12T03:05:54;97684.16;;;19.02;99.02
36630;BME280;36256;42.154;23.002;2023-08-12T03:08:21;97700.69;;;19.04;99.06
36630;BME280;36256;42.154;23.002;2023-08-12T03:10:47;97688.63;;;18.89;98.04
36630;BME280;36256;42.154;23.002;2023-08-12T03:13:14;97697.56;;;19.02;97.58
36630;BME280;36256;42.154;23.002;2023-08-12T03:15:41;97695.81;;;19.04;98.16
36630;BME280;36256;42.154;23.002;2023-08-12T03:18:09;97705.84;;;19.00;100.00
36630;BME280;36256;42.154;23.002;2023-08-12T03:20:36;97705.84;;;19.00;100.00
36630;BME280;36256;42.154;23.002;2023-08-12T03:23:03;97699.34;;;18.99;100.00
36630;BME280;36256;42.154;23.002;2023-08-12T03:25:30;97701.38;;;18.93;100.00
36630;BME280;36256;42.154;23.002;2023-08-12T03:27:57;97701.03;;;18.86;100.00
36630;BME280;36256;42.154;23.002;2023-08-12T03:30:23;97693.22;;;18.80;100.00
36630;BME280;36256;42.154;23.002;2023-08-12T03:32:52;97702.94;;;18.74;100.00
36630;BME280;36256;42.154;23.002;2023-08-12T03:35:19;97702.34;;;18.64;100.00
36630;BME280;36256;42.154;23.002;2023-08-12T03:37:46;97700.75;;;18.63;100.00
36630;BME280;36256;42.154;23.002;2023-08-12T03:40:12;97699.78;;;18.66;100.00
36630;BME280;36256;42.154;23.002;2023-08-12T03:42:39;97710.31;;;18.60;100.00
36630;BME280;36256;42.154;23.002;2023-08-12T03:45:06;97713.69;;;18.64;100.00
36630;BME280;36256;42.154;23.002;2023-08-12T03:47:33;97703.03;;;18.59;100.00
36630;BME280;36256;42.154;23.002;2023-08-12T03:49:59;97708.44;;;18.57;100.00
36630;BME280;36256;42.154;23.002;2023-08-12T03:52:26;97714.91;;;18.58;100.00
36630;BME280;36256;42.154;23.002;2023-08-12T03:54:53;97704.75;;;18.51;100.00
36630;BME280;36256;42.154;23.002;2023-08-12T03:57:20;97712.44;;;18.45;100.00
36630;BME280;36256;42.154;23.002;2023-08-12T03:59:47;97714.53;;;18.50;100.00
36630;BME280;36256;42.154;23.002;2023-08-12T04:02:13;97719.81;;;18.57;100.00
36630;BME280;36256;42.154;23.002;2023-08-12T04:04:40;97711.00;;;18.55;100.00
36630;BME280;36256;42.154;23.002;2023-08-12T04:07:09;97706.53;;;18.49;100.00
36630;BME280;36256;42.154;23.002;2023-08-12T04:09:36;97710.84;;;18.44;100.00
36630;BME280;36256;42.154;23.002;2023-08-12T04:12:03;97710.25;;;18.40;100.00
36630;BME280;36256;42.154;23.002;2023-08-12T04:14:30;97712.81;;;18.38;100.00
36630;BME280;36256;42.154;23.002;2023-08-12T04:16:56;97711.84;;;18.41;100.00
36630;BME280;36256;42.154;23.002;2023-08-12T04:19:23;97713.19;;;18.46;100.00
36630;BME280;36256;42.154;23.002;2023-08-12T04:21:50;97711.63;;;18.45;100.00
36630;BME280;36256;42.154;23.002;2023-08-12T04:24:17;97718.28;;;18.42;100.00
36630;BME280;36256;42.154;23.002;2023-08-12T04:26:43;97719.06;;;18.42;100.00
36630;BME280;36256;42.154;23.002;2023-08-12T04:29:10;97716.72;;;18.41;100.00
36630;BME280;36256;42.154;23.002;2023-08-12T04:31:37;97715.94;;;18.40;100.00
36630;BME280;36256;42.154;23.002;2023-08-12T04:34:04;97718.09;;;18.45;100.00
36630;BME280;36256;42.154;23.002;2023-08-12T04:36:30;97723.78;;;18.45;100.00
36630;BME280;36256;42.154;23.002;2023-08-12T04:38:57;97723.00;;;18.45;100.00
36630;BME280;36256;42.154;23.002;2023-08-12T04:41:24;97720.59;;;18.58;100.00
36630;BME280;36256;42.154;23.002;2023-08-12T04:43:50;97726.00;;;18.56;100.00
36630;BME280;36256;42.154;23.002;2023-08-12T04:46:17;97733.03;;;18.60;100.00
36630;BME280;36256;42.154;23.002;2023-08-12T04:48:44;97726.97;;;18.53;100.00
36630;BME280;36256;42.154;23.002;2023-08-12T04:51:12;97731.19;;;18.57;100.00
36630;BME280;36256;42.154;23.002;2023-08-12T04:53:38;97737.16;;;18.59;100.00
36630;BME280;36256;42.154;23.002;2023-08-12T04:56:05;97739.00;;;18.62;100.00
36630;BME280;36256;42.154;23.002;2023-08-12T04:58:32;97741.84;;;18.62;100.00
36630;BME280;36256;42.154;23.002;2023-08-12T05:01:00;97739.56;;;18.66;100.00
36630;BME280;36256;42.154;23.002;2023-08-12T05:03:27;97739.06;;;18.68;100.00
36630;BME280;36256;42.154;23.002;2023-08-12T05:05:54;97739.13;;;18.73;100.00
36630;BME280;36256;42.154;23.002;2023-08-12T05:08:21;97740.00;;;18.79;100.00
36630;BME280;36256;42.154;23.002;2023-08-12T05:10:48;97737.44;;;18.82;100.00
36630;BME280;36256;42.154;23.002;2023-08-12T05:13:16;97745.97;;;18.82;100.00
36630;BME280;36256;42.154;23.002;2023-08-12T05:15:46;97745.97;;;18.82;100.00
36630;BME280;36256;42.154;23.002;2023-08-12T05:18:14;97740.28;;;18.82;100.00
36630;BME280;36256;42.154;23.002;2023-08-12T05:20:41;97742.38;;;18.87;100.00
36630;BME280;36256;42.154;23.002;2023-08-12T05:23:12;97735.16;;;18.86;98.62
36630;BME280;36256;42.154;23.002;2023-08-12T05:25:39;97732.88;;;18.90;100.00
36630;BME280;36256;42.154;23.002;2023-08-12T05:28:06;97743.09;;;19.02;99.55
36630;BME280;36256;42.154;23.002;2023-08-12T05:30:35;97739.84;;;19.14;98.11
36630;BME280;36256;42.154;23.002;2023-08-12T05:33:03;97729.81;;;19.19;96.98
36630;BME280;36256;42.154;23.002;2023-08-12T05:35:33;97756.41;;;19.36;95.94
36630;BME280;36256;42.154;23.002;2023-08-12T05:38:00;97744.88;;;19.45;94.32
36630;BME280;36256;42.154;23.002;2023-08-12T05:40:27;97751.94;;;19.55;89.14
36630;BME280;36256;42.154;23.002;2023-08-12T05:42:54;97756.19;;;19.65;91.50
36630;BME280;36256;42.154;23.002;2023-08-12T05:45:21;97752.13;;;19.77;89.43
36630;BME280;36256;42.154;23.002;2023-08-12T05:47:47;97752.53;;;19.96;87.09
36630;BME280;36256;42.154;23.002;2023-08-12T05:50:14;97746.66;;;20.05;86.74
36630;BME280;36256;42.154;23.002;2023-08-12T05:52:42;97748.53;;;20.13;83.71
36630;BME280;36256;42.154;23.002;2023-08-12T05:55:09;97757.13;;;20.56;85.07
36630;BME280;36256;42.154;23.002;2023-08-12T05:57:36;97750.88;;;21.05;80.00
36630;BME280;36256;42.154;23.002;2023-08-12T06:00:03;97741.63;;;21.54;75.98
36630;BME280;36256;42.154;23.002;2023-08-12T06:02:30;97739.63;;;22.10;74.36
36630;BME280;36256;42.154;23.002;2023-08-12T06:04:57;97732.16;;;22.81;70.80
36630;BME280;36256;42.154;23.002;2023-08-12T06:07:24;97724.78;;;23.08;64.40
36630;BME280;36256;42.154;23.002;2023-08-12T06:09:51;97721.00;;;23.29;65.16
36630;BME280;36256;42.154;23.002;2023-08-12T06:12:17;97700.22;;;23.23;61.94
36630;BME280;36256;42.154;23.002;2023-08-12T06:14:44;97707.06;;;23.56;61.88
36630;BME280;36256;42.154;23.002;2023-08-12T06:17:11;97705.28;;;24.12;59.92
36630;BME280;36256;42.154;23.002;2023-08-12T06:19:37;97699.66;;;24.73;59.07
36630;BME280;36256;42.154;23.002;2023-08-12T06:22:04;97706.88;;;25.23;59.63
36630;BME280;36256;42.154;23.002;2023-08-12T06:24:31;97698.09;;;25.71;56.75
36630;BME280;36256;42.154;23.002;2023-08-12T06:26:57;97693.84;;;26.22;55.91
36630;BME280;36256;42.154;23.002;2023-08-12T06:29:24;97684.53;;;26.42;55.19
36630;BME280;36256;42.154;23.002;2023-08-12T06:31:52;97667.06;;;26.67;54.11
36630;BME280;36256;42.154;23.002;2023-08-12T06:34:19;97681.19;;;27.17;53.31
36630;BME280;36256;42.154;23.002;2023-08-12T06:36:46;97670.66;;;27.66;51.40
36630;BME280;36256;42.154;23.002;2023-08-12T06:39:13;97668.97;;;27.91;51.19
36630;BME280;36256;42.154;23.002;2023-08-12T06:41:40;97664.25;;;28.22;50.20
36630;BME280;36256;42.154;23.002;2023-08-12T06:44:06;97664.63;;;28.47;49.97
36630;BME280;36256;42.154;23.002;2023-08-12T06:46:33;97655.97;;;28.47;47.63
36630;BME280;36256;42.154;23.002;2023-08-12T06:49:00;97646.31;;;27.95;47.55
36630;BME280;36256;42.154;23.002;2023-08-12T06:51:27;97642.25;;;27.70;47.96
36630;BME280;36256;42.154;23.002;2023-08-12T06:53:53;97646.31;;;27.95;47.66
36630;BME280;36256;42.154;23.002;2023-08-12T06:56:20;97642.44;;;27.93;45.86
36630;BME280;36256;42.154;23.002;2023-08-12T06:58:47;97637.06;;;28.18;46.19
36630;BME280;36256;42.154;23.002;2023-08-12T07:01:14;97636.41;;;27.83;46.28
36630;BME280;36256;42.154;23.002;2023-08-12T07:03:41;97630.84;;;27.85;45.82
36630;BME280;36256;42.154;23.002;2023-08-12T07:06:08;97641.81;;;27.66;48.92
36630;BME280;36256;42.154;23.002;2023-08-12T07:08:34;97643.78;;;27.04;48.29
36630;BME280;36256;42.154;23.002;2023-08-12T07:11:01;97646.91;;;27.40;48.64
36630;BME280;36256;42.154;23.002;2023-08-12T07:13:28;97647.75;;;27.48;48.28
36630;BME280;36256;42.154;23.002;2023-08-12T07:15:54;97645.75;;;27.76;47.96
36630;BME280;36256;42.154;23.002;2023-08-12T07:18:21;97637.94;;;27.64;48.03
36630;BME280;36256;42.154;23.002;2023-08-12T07:20:50;97643.91;;;27.86;48.63
36630;BME280;36256;42.154;23.002;2023-08-12T07:23:16;97640.41;;;27.80;47.80
36630;BME280;36256;42.154;23.002;2023-08-12T07:25:46;97629.16;;;27.69;45.10
36630;BME280;36256;42.154;23.002;2023-08-12T07:28:12;97637.44;;;27.93;48.19
36630;BME280;36256;42.154;23.002;2023-08-12T07:30:39;97623.16;;;28.37;44.54
36630;BME280;36256;42.154;23.002;2023-08-12T07:33:06;97623.84;;;28.79;44.85
36630;BME280;36256;42.154;23.002;2023-08-12T07:35:33;97631.25;;;29.02;47.24
36630;BME280;36256;42.154;23.002;2023-08-12T07:38:00;97620.75;;;29.27;44.70
36630;BME280;36256;42.154;23.002;2023-08-12T07:40:27;97612.34;;;29.60;40.54
36630;BME280;36256;42.154;23.002;2023-08-12T07:42:53;97599.00;;;29.26;41.13
36630;BME280;36256;42.154;23.002;2023-08-12T07:45:21;97603.06;;;29.38;42.57
36630;BME280;36256;42.154;23.002;2023-08-12T07:47:49;97608.88;;;29.54;43.84
36630;BME280;36256;42.154;23.002;2023-08-12T07:50:16;97604.03;;;29.48;43.58
36630;BME280;36256;42.154;23.002;2023-08-12T07:52:43;97590.94;;;29.47;43.55
36630;BME280;36256;42.154;23.002;2023-08-12T07:55:10;97605.03;;;29.59;44.04
36630;BME280;36256;42.154;23.002;2023-08-12T07:57:36;97589.00;;;29.42;42.45
36630;BME280;36256;42.154;23.002;2023-08-12T08:00:04;97592.88;;;29.37;43.41
36630;BME280;36256;42.154;23.002;2023-08-12T08:02:31;97575.59;;;29.09;43.80
36630;BME280;36256;42.154;23.002;2023-08-12T08:04:58;97599.78;;;28.84;45.01
36630;BME280;36256;42.154;23.002;2023-08-12T08:07:25;97582.28;;;28.89;41.90
36630;BME280;36256;42.154;23.002;2023-08-12T08:09:51;97594.69;;;29.12;46.33
36630;BME280;36256;42.154;23.002;2023-08-12T08:12:18;97594.75;;;29.27;45.37
36630;BME280;36256;42.154;23.002;2023-08-12T08:14:45;97590.91;;;29.40;44.33
36630;BME280;36256;42.154;23.002;2023-08-12T08:17:11;97588.03;;;29.25;44.48
36630;BME280;36256;42.154;23.002;2023-08-12T08:19:38;97584.78;;;29.51;43.69
36630;BME280;36256;42.154;23.002;2023-08-12T08:22:05;97591.41;;;29.82;42.68
36630;BME280;36256;42.154;23.002;2023-08-12T08:24:32;97590.25;;;29.77;41.70
36630;BME280;36256;42.154;23.002;2023-08-12T08:26:58;97591.00;;;29.78;43.21
36630;BME280;36256;42.154;23.002;2023-08-12T08:29:25;97589.81;;;29.66;43.06
36630;BME280;36256;42.154;23.002;2023-08-12T08:31:52;97572.50;;;29.81;41.13
36630;BME280;36256;42.154;23.002;2023-08-12T08:34:18;97585.81;;;29.84;44.81
36630;BME280;36256;42.154;23.002;2023-08-12T08:36:45;97572.84;;;29.70;43.01
36630;BME280;36256;42.154;23.002;2023-08-12T08:39:12;97584.59;;;29.57;45.25
36630;BME280;36256;42.154;23.002;2023-08-12T08:41:40;97591.75;;;29.71;44.95
36630;BME280;36256;42.154;23.002;2023-08-12T08:44:08;97570.88;;;29.27;42.32
36630;BME280;36256;42.154;23.002;2023-08-12T08:46:35;97558.47;;;29.11;44.69
36630;BME280;36256;42.154;23.002;2023-08-12T08:49:04;97558.41;;;28.96;40.67
36630;BME280;36256;42.154;23.002;2023-08-12T08:51:31;97552.94;;;28.70;42.20
36630;BME280;36256;42.154;23.002;2023-08-12T08:53:58;97561.06;;;28.79;43.37
36630;BME280;36256;42.154;23.002;2023-08-12T08:56:31;97547.41;;;28.87;48.04
36630;BME280;36256;42.154;23.002;2023-08-12T08:58:59;97570.75;;;29.04;45.45
36630;BME280;36256;42.154;23.002;2023-08-12T09:01:27;97547.19;;;28.78;45.14
36630;BME280;36256;42.154;23.002;2023-08-12T09:03:54;97547.91;;;28.35;45.08
36630;BME280;36256;42.154;23.002;2023-08-12T09:06:23;97574.72;;;28.43;47.75
36630;BME280;36256;42.154;23.002;2023-08-12T09:08:51;97564.06;;;28.66;49.22
36630;BME280;36256;42.154;23.002;2023-08-12T09:11:19;97557.53;;;28.65;49.65
36630;BME280;36256;42.154;23.002;2023-08-12T09:13:46;97552.78;;;28.83;46.89
36630;BME280;36256;42.154;23.002;2023-08-12T09:16:13;97542.66;;;28.97;46.15
36630;BME280;36256;42.154;23.002;2023-08-12T09:18:42;97532.06;;;29.07;45.63
36630;BME280;36256;42.154;23.002;2023-08-12T09:21:10;97538.88;;;29.32;43.03
36630;BME280;36256;42.154;23.002;2023-08-12T09:23:38;97530.03;;;29.45;42.70
36630;BME280;36256;42.154;23.002;2023-08-12T09:26:16;97520.41;;;29.35;44.12
36630;BME280;36256;42.154;23.002;2023-08-12T09:28:44;97526.53;;;29.32;43.35
36630;BME280;36256;42.154;23.002;2023-08-12T09:31:31;97535.03;;;29.30;47.17
36630;BME280;36256;42.154;23.002;2023-08-12T09:34:03;97524.94;;;29.08;45.34
36630;BME280;36256;42.154;23.002;2023-08-12T09:36:30;97525.31;;;28.97;44.83
36630;BME280;36256;42.154;23.002;2023-08-12T09:38:57;97506.38;;;28.81;46.04
36630;BME280;36256;42.154;23.002;2023-08-12T09:41:27;97503.34;;;28.94;44.77
36630;BME280;36256;42.154;23.002;2023-08-12T09:44:01;97505.09;;;28.97;43.60
36630;BME280;36256;42.154;23.002;2023-08-12T09:46:28;97488.28;;;28.81;45.35
36630;BME280;36256;42.154;23.002;2023-08-12T09:48:55;97520.63;;;28.79;47.19
36630;BME280;36256;42.154;23.002;2023-08-12T09:51:22;97514.78;;;28.64;44.98
36630;BME280;36256;42.154;23.002;2023-08-12T09:53:49;97509.78;;;28.64;47.95
36630;BME280;36256;42.154;23.002;2023-08-12T09:56:19;97515.03;;;28.81;48.02
36630;BME280;36256;42.154;23.002;2023-08-12T09:58:50;97511.41;;;28.88;46.56
36630;BME280;36256;42.154;23.002;2023-08-12T10:01:18;97506.03;;;28.92;47.15
36630;BME280;36256;42.154;23.002;2023-08-12T10:03:49;97496.78;;;28.86;48.31
36630;BME280;36256;42.154;23.002;2023-08-12T10:06:17;97498.91;;;28.93;47.47
36630;BME280;36256;42.154;23.002;2023-08-12T10:08:48;97499.84;;;28.88;47.22
36630;BME280;36256;42.154;23.002;2023-08-12T10:11:15;97493.28;;;28.80;43.97
36630;BME280;36256;42.154;23.002;2023-08-12T10:13:42;97479.59;;;28.73;41.56
36630;BME280;36256;42.154;23.002;2023-08-12T10:16:10;97479.22;;;28.77;46.73
36630;BME280;36256;42.154;23.002;2023-08-12T10:18:41;97476.31;;;28.77;43.13
36630;BME280;36256;42.154;23.002;2023-08-12T10:21:10;97470.00;;;28.78;43.44
36630;BME280;36256;42.154;23.002;2023-08-12T10:23:41;97467.88;;;28.79;43.00
36630;BME280;36256;42.154;23.002;2023-08-12T10:26:13;97483.03;;;28.64;47.10
36630;BME280;36256;42.154;23.002;2023-08-12T10:28:40;97476.56;;;28.43;46.64
36630;BME280;36256;42.154;23.002;2023-08-12T10:31:07;97480.94;;;28.29;46.24
36630;BME280;36256;42.154;23.002;2023-08-12T10:33:38;97467.03;;;28.20;45.54
36630;BME280;36256;42.154;23.002;2023-08-12T10:36:05;97458.19;;;28.18;44.49
36630;BME280;36256;42.154;23.002;2023-08-12T10:38:33;97468.59;;;28.21;45.39
36630;BME280;36256;42.154;23.002;2023-08-12T10:41:16;97472.59;;;28.18;48.22
36630;BME280;36256;42.154;23.002;2023-08-12T10:44:00;97481.84;;;28.16;50.71
36630;BME280;36256;42.154;23.002;2023-08-12T10:46:36;97468.41;;;28.19;47.62
36630;BME280;36256;42.154;23.002;2023-08-12T10:49:08;97464.91;;;28.13;49.16
36630;BME280;36256;42.154;23.002;2023-08-12T10:51:44;97446.50;;;27.95;43.63
36630;BME280;36256;42.154;23.002;2023-08-12T11:02:31;97449.97;;;28.29;47.81
36630;BME280;36256;42.154;23.002;2023-08-12T11:05:08;97446.50;;;28.31;47.96
36630;BME280;36256;42.154;23.002;2023-08-12T11:07:39;97442.31;;;28.39;50.23
36630;BME280;36256;42.154;23.002;2023-08-12T11:12:36;97421.69;;;28.28;44.01
36630;BME280;36256;42.154;23.002;2023-08-12T11:15:03;97410.53;;;28.32;46.16
36630;BME280;36256;42.154;23.002;2023-08-12T11:17:35;97427.28;;;28.41;49.98
36630;BME280;36256;42.154;23.002;2023-08-12T11:20:04;97422.97;;;28.12;46.05
36630;BME280;36256;42.154;23.002;2023-08-12T11:22:42;97424.53;;;28.20;46.16
36630;BME280;36256;42.154;23.002;2023-08-12T11:25:11;97424.88;;;28.09;49.99
36630;BME280;36256;42.154;23.002;2023-08-12T11:27:39;97434.81;;;28.01;52.76
36630;BME280;36256;42.154;23.002;2023-08-12T11:30:06;97432.88;;;27.95;50.75
36630;BME280;36256;42.154;23.002;2023-08-12T11:32:34;97433.28;;;28.00;50.37
36630;BME280;36256;42.154;23.002;2023-08-12T11:35:01;97424.84;;;28.02;51.04
36630;BME280;36256;42.154;23.002;2023-08-12T11:37:27;97431.63;;;28.12;50.46
36630;BME280;36256;42.154;23.002;2023-08-12T11:39:54;97429.31;;;28.18;51.85
36630;BME280;36256;42.154;23.002;2023-08-12T11:42:21;97406.81;;;28.16;46.31
36630;BME280;36256;42.154;23.002;2023-08-12T11:44:48;97410.91;;;28.28;45.27
36630;BME280;36256;42.154;23.002;2023-08-12T11:47:14;97395.53;;;28.26;47.90
36630;BME280;36256;42.154;23.002;2023-08-12T11:49:41;97421.53;;;28.41;50.53
36630;BME280;36256;42.154;23.002;2023-08-12T11:52:09;97415.72;;;28.26;47.50
36630;BME280;36256;42.154;23.002;2023-08-12T11:54:39;97409.13;;;28.18;46.55
36630;BME280;36256;42.154;23.002;2023-08-12T11:57:05;97396.19;;;28.04;45.78
36630;BME280;36256;42.154;23.002;2023-08-12T11:59:32;97402.56;;;28.10;48.02
36630;BME280;36256;42.154;23.002;2023-08-12T12:02:01;97398.00;;;28.22;46.07
36630;BME280;36256;42.154;23.002;2023-08-12T12:04:31;97405.56;;;28.40;52.70
36630;BME280;36256;42.154;23.002;2023-08-12T12:06:58;97392.06;;;28.27;46.14
36630;BME280;36256;42.154;23.002;2023-08-12T12:09:28;97393.44;;;28.34;48.14
36630;BME280;36256;42.154;23.002;2023-08-12T12:11:55;97388.44;;;28.42;46.76
36630;BME280;36256;42.154;23.002;2023-08-12T12:14:22;97393.47;;;28.49;48.49
36630;BME280;36256;42.154;23.002;2023-08-12T12:16:49;97382.31;;;28.53;47.19
36630;BME280;36256;42.154;23.002;2023-08-12T12:19:19;97385.41;;;28.55;46.57
36630;BME280;36256;42.154;23.002;2023-08-12T12:21:50;97373.69;;;28.60;46.96
36630;BME280;36256;42.154;23.002;2023-08-12T12:24:18;97375.44;;;28.63;46.09
36630;BME280;36256;42.154;23.002;2023-08-12T12:26:46;97380.81;;;28.74;49.65
36630;BME280;36256;42.154;23.002;2023-08-12T12:29:15;97375.25;;;28.77;43.94
36630;BME280;36256;42.154;23.002;2023-08-12T12:31:42;97383.34;;;28.86;46.91
36630;BME280;36256;42.154;23.002;2023-08-12T12:34:09;97377.97;;;28.82;48.08
36630;BME280;36256;42.154;23.002;2023-08-12T12:36:37;97376.22;;;28.87;48.06
36630;BME280;36256;42.154;23.002;2023-08-12T12:39:05;97371.22;;;28.95;46.34
36630;BME280;36256;42.154;23.002;2023-08-12T12:41:33;97373.16;;;29.00;47.71
36630;BME280;36256;42.154;23.002;2023-08-12T12:44:00;97360.03;;;29.06;47.23
36630;BME280;36256;42.154;23.002;2023-08-12T12:46:29;97360.06;;;29.21;47.27
36630;BME280;36256;42.154;23.002;2023-08-12T12:48:56;97363.94;;;29.16;46.74
36630;BME280;36256;42.154;23.002;2023-08-12T12:51:23;97348.09;;;29.02;45.47
36630;BME280;36256;42.154;23.002;2023-08-12T12:53:49;97349.28;;;28.99;42.52
36630;BME280;36256;42.154;23.002;2023-08-12T12:56:16;97352.34;;;29.09;45.71
36630;BME280;36256;42.154;23.002;2023-08-12T12:58:43;97357.75;;;29.12;47.83
36630;BME280;36256;42.154;23.002;2023-08-12T13:01:10;97354.09;;;29.19;46.45
36630;BME280;36256;42.154;23.002;2023-08-12T13:03:36;97343.50;;;29.14;45.78
36630;BME280;36256;42.154;23.002;2023-08-12T13:06:05;97343.50;;;29.14;46.62
36630;BME280;36256;42.154;23.002;2023-08-12T13:08:32;97345.03;;;29.15;44.83
36630;BME280;36256;42.154;23.002;2023-08-12T13:10:59;97341.75;;;29.19;44.24